sensor_id;sensor_type;location;lat;lon;timestamp;pressure;altitude;pressure_sealevel;temperature;humidity
61039;BME280;46919;45.816;3.104;2023-01-08T00:02:01;97280.41;;;9.37;93.95
61039;BME280;46919;45.816;3.104;2023-01-08T00:04:27;97282.06;;;9.38;94.10
61039;BME280;46919;45.816;3.104;2023-01-08T00:06:52;97287.94;;;9.35;94.47
61039;BME280;46919;45.816;3.104;2023-01-08T00:09:18;97285.09;;;9.30;95.01
61039;BME280;46919;45.816;3.104;2023-01-08T00:11:43;97278.63;;;9.19;95.80
61039;BME280;46919;45.816;3.104;2023-01-08T00:14:09;97273.19;;;9.07;97.74
61039;BME280;46919;45.816;3.104;2023-01-08T00:16:35;97266.88;;;9.01;98.50
61039;BME280;46919;45.816;3.104;2023-01-08T00:19:00;97264.41;;;9.00;98.93
61039;BME280;46919;45.816;3.104;2023-01-08T00:21:26;97251.50;;;9.02;98.88
61039;BME280;46919;45.816;3.104;2023-01-08T00:23:52;97253.28;;;8.96;99.58
61039;BME280;46919;45.816;3.104;2023-01-08T00:26:17;97246.91;;;8.91;100.00
61039;BME280;46919;45.816;3.104;2023-01-08T00:28:42;97233.31;;;8.97;99.63
61039;BME280;46919;45.816;3.104;2023-01-08T00:31:11;97239.00;;;9.07;98.87
61039;BME280;46919;45.816;3.104;2023-01-08T00:33:38;97230.91;;;9.07;99.19
61039;BME280;46919;45.816;3.104;2023-01-08T00:36:08;97234.19;;;9.10;99.45
61039;BME280;46919;45.816;3.104;2023-01-08T00:38:34;97218.81;;;9.10;99.40
61039;BME280;46919;45.816;3.104;2023-01-08T00:40:59;97217.88;;;9.04;99.95
61039;BME280;46919;45.816;3.104;2023-01-08T00:43:25;97208.84;;;8.99;100.00
61039;BME280;46919;45.816;3.104;2023-01-08T00:45:50;97203.84;;;9.02;100.00
61039;BME280;46919;45.816;3.104;2023-01-08T00:48:18;97200.78;;;9.11;99.66
61039;BME280;46919;45.816;3.104;2023-01-08T00:50:43;97203.59;;;9.16;98.87
61039;BME280;46919;45.816;3.104;2023-01-08T00:53:09;97208.53;;;9.19;98.37
61039;BME280;46919;45.816;3.104;2023-01-08T00:55:34;97205.59;;;9.20;98.25
61039;BME280;46919;45.816;3.104;2023-01-08T00:57:59;97209.69;;;9.23;98.25
61039;BME280;46919;45.816;3.104;2023-01-08T01:00:25;97205.94;;;9.24;98.48
61039;BME280;46919;45.816;3.104;2023-01-08T01:02:50;97200.44;;;9.31;97.74
61039;BME280;46919;45.816;3.104;2023-01-08T01:05:16;97195.91;;;9.31;97.47
61039;BME280;46919;45.816;3.104;2023-01-08T01:07:42;97205.84;;;9.31;98.29
61039;BME280;46919;45.816;3.104;2023-01-08T01:10:09;97202.56;;;9.29;98.34
61039;BME280;46919;45.816;3.104;2023-01-08T01:12:37;97198.81;;;9.30;98.14
61039;BME280;46919;45.816;3.104;2023-01-08T01:15:04;97190.97;;;9.28;98.62
61039;BME280;46919;45.816;3.104;2023-01-08T01:17:30;97198.69;;;9.24;98.66
61039;BME280;46919;45.816;3.104;2023-01-08T01:19:55;97185.53;;;9.16;99.71
61039;BME280;46919;45.816;3.104;2023-01-08T01:22:21;97182.97;;;9.10;100.00
61039;BME280;46919;45.816;3.104;2023-01-08T01:24:46;97176.03;;;9.02;100.00
61039;BME280;46919;45.816;3.104;2023-01-08T01:27:12;97170.53;;;8.97;100.00
61039;BME280;46919;45.816;3.104;2023-01-08T01:29:37;97174.97;;;8.91;100.00
61039;BME280;46919;45.816;3.104;2023-01-08T01:32:03;97177.88;;;8.89;100.00
61039;BME280;46919;45.816;3.104;2023-01-08T01:34:28;97187.16;;;8.94;100.00
61039;BME280;46919;45.816;3.104;2023-01-08T01:36:54;97177.22;;;9.06;100.00
61039;BME280;46919;45.816;3.104;2023-01-08T01:39:19;97180.50;;;9.08;100.00
61039;BME280;46919;45.816;3.104;2023-01-08T01:41:46;97190.94;;;9.16;100.00
61039;BME280;46919;45.816;3.104;2023-01-08T01:44:34;97185.69;;;9.21;100.00
61039;BME280;46919;45.816;3.104;2023-01-08T01:47:12;97186.38;;;9.17;100.00
61039;BME280;46919;45.816;3.104;2023-01-08T01:49:42;97196.22;;;9.23;99.58
61039;BME280;46919;45.816;3.104;2023-01-08T01:52:12;97188.50;;;9.27;99.28
61039;BME280;46919;45.816;3.104;2023-01-08T01:54:37;97182.72;;;9.23;99.23
61039;BME280;46919;45.816;3.104;2023-01-08T01:57:03;97183.56;;;9.23;99.20
61039;BME280;46919;45.816;3.104;2023-01-08T01:59:30;97190.97;;;9.28;98.44
61039;BME280;46919;45.816;3.104;2023-01-08T02:01:56;97207.13;;;9.28;98.76
61039;BME280;46919;45.816;3.104;2023-01-08T02:04:22;97193.91;;;9.27;98.45
61039;BME280;46919;45.816;3.104;2023-01-08T02:06:59;97196.69;;;9.32;98.45
61039;BME280;46919;45.816;3.104;2023-01-08T02:09:40;97189.19;;;9.34;98.16
61039;BME280;46919;45.816;3.104;2023-01-08T02:12:20;97200.13;;;9.39;97.36
61039;BME280;46919;45.816;3.104;2023-01-08T02:15:17;97200.81;;;9.46;96.42
61039;BME280;46919;45.816;3.104;2023-01-08T02:17:54;97212.63;;;9.45;96.84
61039;BME280;46919;45.816;3.104;2023-01-08T02:20:42;97232.59;;;9.44;97.08
61039;BME280;46919;45.816;3.104;2023-01-08T02:29:05;97241.59;;;9.26;99.52
61039;BME280;46919;45.816;3.104;2023-01-08T02:31:32;97256.91;;;9.02;100.00
61039;BME280;46919;45.816;3.104;2023-01-08T02:33:58;97265.06;;;8.83;100.00
61039;BME280;46919;45.816;3.104;2023-01-08T02:36:42;97254.91;;;8.67;100.00
61039;BME280;46919;45.816;3.104;2023-01-08T02:47:45;97256.28;;;8.21;100.00
61039;BME280;46919;45.816;3.104;2023-01-08T02:50:59;97259.28;;;8.12;100.00
61039;BME280;46919;45.816;3.104;2023-01-08T02:53:36;97259.59;;;8.04;100.00
61039;BME280;46919;45.816;3.104;2023-01-08T02:56:07;97254.00;;;8.06;100.00
61039;BME280;46919;45.816;3.104;2023-01-08T02:58:36;97251.06;;;8.07;100.00
61039;BME280;46919;45.816;3.104;2023-01-08T03:01:06;97248.97;;;8.09;100.00
61039;BME280;46919;45.816;3.104;2023-01-08T03:03:34;97250.22;;;8.07;100.00
61039;BME280;46919;45.816;3.104;2023-01-08T03:06:06;97263.09;;;8.05;100.00
61039;BME280;46919;45.816;3.104;2023-01-08T03:08:37;97252.56;;;8.03;100.00
61039;BME280;46919;45.816;3.104;2023-01-08T03:11:10;97261.31;;;7.98;100.00
61039;BME280;46919;45.816;3.104;2023-01-08T03:13:40;97252.41;;;7.98;100.00
61039;BME280;46919;45.816;3.104;2023-01-08T03:16:11;97254.13;;;7.92;100.00
61039;BME280;46919;45.816;3.104;2023-01-08T03:18:44;97251.28;;;7.87;100.00
61039;BME280;46919;45.816;3.104;2023-01-08T03:21:12;97247.16;;;7.85;100.00
61039;BME280;46919;45.816;3.104;2023-01-08T03:23:39;97252.16;;;7.81;100.00
61039;BME280;46919;45.816;3.104;2023-01-08T03:26:06;97251.81;;;7.77;100.00
61039;BME280;46919;45.816;3.104;2023-01-08T03:28:36;97254.28;;;7.79;100.00
61039;BME280;46919;45.816;3.104;2023-01-08T03:31:04;97243.72;;;7.77;100.00
61039;BME280;46919;45.816;3.104;2023-01-08T03:33:30;97231.09;;;7.78;100.00
61039;BME280;46919;45.816;3.104;2023-01-08T03:35:58;97234.00;;;7.76;100.00
61039;BME280;46919;45.816;3.104;2023-01-08T03:38:39;97231.31;;;7.76;100.00
61039;BME280;46919;45.816;3.104;2023-01-08T03:41:09;97224.91;;;7.77;100.00
61039;BME280;46919;45.816;3.104;2023-01-08T03:43:35;97221.16;;;7.78;100.00
61039;BME280;46919;45.816;3.104;2023-01-08T03:46:02;97225.34;;;7.74;100.00
61039;BME280;46919;45.816;3.104;2023-01-08T03:48:30;97209.22;;;7.74;100.00
61039;BME280;46919;45.816;3.104;2023-01-08T03:50:57;97216.66;;;7.72;100.00
61039;BME280;46919;45.816;3.104;2023-01-08T03:53:22;97214.22;;;7.71;100.00
61039;BME280;46919;45.816;3.104;2023-01-08T03:55:48;97213.22;;;7.65;100.00
61039;BME280;46919;45.816;3.104;2023-01-08T03:58:13;97205.31;;;7.70;100.00
61039;BME280;46919;45.816;3.104;2023-01-08T04:00:39;97209.22;;;7.74;100.00
61039;BME280;46919;45.816;3.104;2023-01-08T04:03:04;97213.69;;;7.80;100.00
61039;BME280;46919;45.816;3.104;2023-01-08T04:05:30;97213.69;;;7.80;100.00
61039;BME280;46919;45.816;3.104;2023-01-08T04:07:55;97208.00;;;7.70;100.00
61039;BME280;46919;45.816;3.104;2023-01-08T04:10:22;97204.78;;;7.61;100.00
61039;BME280;46919;45.816;3.104;2023-01-08T04:12:47;97217.47;;;7.54;100.00
61039;BME280;46919;45.816;3.104;2023-01-08T04:15:13;97222.63;;;7.56;100.00
61039;BME280;46919;45.816;3.104;2023-01-08T04:17:38;97212.25;;;7.59;100.00
61039;BME280;46919;45.816;3.104;2023-01-08T04:20:04;97199.78;;;7.65;100.00
61039;BME280;46919;45.816;3.104;2023-01-08T04:22:30;97200.38;;;7.67;100.00
61039;BME280;46919;45.816;3.104;2023-01-08T04:24:55;97196.66;;;7.68;100.00
61039;BME280;46919;45.816;3.104;2023-01-08T04:27:20;97202.25;;;7.67;100.00
61039;BME280;46919;45.816;3.104;2023-01-08T04:29:46;97201.22;;;7.68;100.00
61039;BME280;46919;45.816;3.104;2023-01-08T04:32:11;97202.16;;;7.73;100.00
61039;BME280;46919;45.816;3.104;2023-01-08T04:34:37;97203.59;;;7.76;100.00
61039;BME280;46919;45.816;3.104;2023-01-08T04:37:02;97197.69;;;7.67;100.00
61039;BME280;46919;45.816;3.104;2023-01-08T04:39:28;97196.06;;;7.66;100.00
61039;BME280;46919;45.816;3.104;2023-01-08T04:41:53;97195.00;;;7.67;100.00
61039;BME280;46919;45.816;3.104;2023-01-08T04:44:19;97197.00;;;7.53;100.00
61039;BME280;46919;45.816;3.104;2023-01-08T04:46:44;97198.28;;;7.51;100.00
61039;BME280;46919;45.816;3.104;2023-01-08T04:49:10;97192.31;;;7.49;100.00
61039;BME280;46919;45.816;3.104;2023-01-08T04:51:36;97191.25;;;7.50;100.00
61039;BME280;46919;45.816;3.104;2023-01-08T04:54:01;97180.56;;;7.43;100.00
61039;BME280;46919;45.816;3.104;2023-01-08T04:56:27;97185.63;;;7.33;100.00
61039;BME280;46919;45.816;3.104;2023-01-08T04:58:52;97186.31;;;7.28;100.00
61039;BME280;46919;45.816;3.104;2023-01-08T05:01:24;97193.59;;;7.21;100.00
61039;BME280;46919;45.816;3.104;2023-01-08T05:03:53;97195.91;;;7.17;100.00
61039;BME280;46919;45.816;3.104;2023-01-08T05:06:19;97195.53;;;7.14;100.00
61039;BME280;46919;45.816;3.104;2023-01-08T05:08:45;97194.69;;;7.13;100.00
61039;BME280;46919;45.816;3.104;2023-01-08T05:11:10;97198.22;;;7.14;100.00
61039;BME280;46919;45.816;3.104;2023-01-08T05:13:36;97187.50;;;7.07;100.00
61039;BME280;46919;45.816;3.104;2023-01-08T05:16:01;97186.91;;;7.05;100.00
61039;BME280;46919;45.816;3.104;2023-01-08T05:18:28;97198.31;;;7.00;100.00
61039;BME280;46919;45.816;3.104;2023-01-08T05:20:54;97194.59;;;7.01;100.00
61039;BME280;46919;45.816;3.104;2023-01-08T05:23:23;97197.88;;;7.03;100.00
61039;BME280;46919;45.816;3.104;2023-01-08T05:25:48;97203.69;;;7.00;100.00
61039;BME280;46919;45.816;3.104;2023-01-08T05:28:14;97196.13;;;7.16;100.00
61039;BME280;46919;45.816;3.104;2023-01-08T05:30:39;97184.13;;;7.37;100.00
61039;BME280;46919;45.816;3.104;2023-01-08T05:33:04;97188.41;;;7.44;100.00
61039;BME280;46919;45.816;3.104;2023-01-08T05:35:30;97188.78;;;7.48;100.00
61039;BME280;46919;45.816;3.104;2023-01-08T05:37:58;97193.28;;;7.54;100.00
61039;BME280;46919;45.816;3.104;2023-01-08T05:40:24;97176.31;;;7.54;100.00
61039;BME280;46919;45.816;3.104;2023-01-08T05:42:49;97188.41;;;7.44;100.00
61039;BME280;46919;45.816;3.104;2023-01-08T05:45:14;97192.00;;;7.57;100.00
61039;BME280;46919;45.816;3.104;2023-01-08T05:47:40;97216.13;;;7.64;100.00
61039;BME280;46919;45.816;3.104;2023-01-08T05:50:06;97229.81;;;7.62;100.00
61039;BME280;46919;45.816;3.104;2023-01-08T05:52:32;97212.78;;;8.05;100.00
61039;BME280;46919;45.816;3.104;2023-01-08T05:54:57;97217.72;;;8.08;100.00
61039;BME280;46919;45.816;3.104;2023-01-08T05:57:24;97207.25;;;8.00;100.00
61039;BME280;46919;45.816;3.104;2023-01-08T05:59:50;97209.94;;;8.00;100.00
61039;BME280;46919;45.816;3.104;2023-01-08T06:02:15;97200.84;;;8.01;100.00
61039;BME280;46919;45.816;3.104;2023-01-08T06:04:41;97194.56;;;8.07;100.00
61039;BME280;46919;45.816;3.104;2023-01-08T06:07:06;97202.47;;;8.02;100.00
61039;BME280;46919;45.816;3.104;2023-01-08T06:09:31;97199.78;;;8.02;100.00
61039;BME280;46919;45.816;3.104;2023-01-08T06:11:57;97192.69;;;8.08;100.00
61039;BME280;46919;45.816;3.104;2023-01-08T06:14:23;97176.75;;;8.25;97.77
61039;BME280;46919;45.816;3.104;2023-01-08T06:16:48;97193.59;;;8.32;99.88
61039;BME280;46919;45.816;3.104;2023-01-08T06:19:14;97176.75;;;8.25;100.00
61039;BME280;46919;45.816;3.104;2023-01-08T06:21:39;97188.53;;;8.24;100.00
61039;BME280;46919;45.816;3.104;2023-01-08T06:24:04;97192.03;;;8.24;100.00
61039;BME280;46919;45.816;3.104;2023-01-08T06:26:30;97174.78;;;8.13;100.00
61039;BME280;46919;45.816;3.104;2023-01-08T06:28:55;97190.00;;;8.08;100.00
61039;BME280;46919;45.816;3.104;2023-01-08T06:31:21;97179.44;;;8.06;100.00
61039;BME280;46919;45.816;3.104;2023-01-08T06:33:46;97173.63;;;8.09;100.00
61039;BME280;46919;45.816;3.104;2023-01-08T06:36:12;97163.66;;;8.10;100.00
61039;BME280;46919;45.816;3.104;2023-01-08T06:38:37;97179.59;;;8.11;100.00
61039;BME280;46919;45.816;3.104;2023-01-08T06:41:04;97175.53;;;8.21;100.00
61039;BME280;46919;45.816;3.104;2023-01-08T06:43:29;97181.38;;;8.18;100.00
61039;BME280;46919;45.816;3.104;2023-01-08T06:45:55;97162.84;;;8.09;100.00
61039;BME280;46919;45.816;3.104;2023-01-08T06:48:23;97162.56;;;7.99;100.00
61039;BME280;46919;45.816;3.104;2023-01-08T06:50:48;97166.00;;;7.88;100.00
61039;BME280;46919;45.816;3.104;2023-01-08T06:53:14;97155.19;;;7.76;100.00
61039;BME280;46919;45.816;3.104;2023-01-08T06:55:39;97148.31;;;7.61;100.00
61039;BME280;46919;45.816;3.104;2023-01-08T06:58:05;97153.16;;;7.53;100.00
61039;BME280;46919;45.816;3.104;2023-01-08T07:00:30;97151.13;;;7.48;100.00
61039;BME280;46919;45.816;3.104;2023-01-08T07:02:55;97164.78;;;7.47;100.00
61039;BME280;46919;45.816;3.104;2023-01-08T07:05:22;97159.13;;;7.36;100.00
61039;BME280;46919;45.816;3.104;2023-01-08T07:07:47;97152.16;;;7.29;100.00
61039;BME280;46919;45.816;3.104;2023-01-08T07:10:13;97155.97;;;7.21;100.00
61039;BME280;46919;45.816;3.104;2023-01-08T07:12:38;97151.03;;;7.18;100.00
61039;BME280;46919;45.816;3.104;2023-01-08T07:15:04;97157.06;;;7.13;100.00
61039;BME280;46919;45.816;3.104;2023-01-08T07:17:31;97145.06;;;7.16;100.00
61039;BME280;46919;45.816;3.104;2023-01-08T07:19:57;97147.75;;;7.16;100.00
61039;BME280;46919;45.816;3.104;2023-01-08T07:22:22;97127.06;;;7.16;100.00
61039;BME280;46919;45.816;3.104;2023-01-08T07:24:50;97127.88;;;7.17;100.00
61039;BME280;46919;45.816;3.104;2023-01-08T07:27:15;97128.78;;;7.11;100.00
61039;BME280;46919;45.816;3.104;2023-01-08T07:29:40;97133.38;;;7.03;100.00
61039;BME280;46919;45.816;3.104;2023-01-08T07:32:06;97120.97;;;7.02;100.00
61039;BME280;46919;45.816;3.104;2023-01-08T07:34:31;97123.22;;;7.05;100.00
61039;BME280;46919;45.816;3.104;2023-01-08T07:36:59;97111.44;;;7.06;100.00
61039;BME280;46919;45.816;3.104;2023-01-08T07:39:24;97119.66;;;7.12;100.00
61039;BME280;46919;45.816;3.104;2023-01-08T07:41:50;97117.13;;;7.17;100.00
61039;BME280;46919;45.816;3.104;2023-01-08T07:44:15;97114.28;;;7.12;100.00
61039;BME280;46919;45.816;3.104;2023-01-08T07:46:40;97125.66;;;7.14;100.00
61039;BME280;46919;45.816;3.104;2023-01-08T07:49:06;97131.19;;;7.19;100.00
61039;BME280;46919;45.816;3.104;2023-01-08T07:51:31;97128.19;;;7.27;100.00
61039;BME280;46919;45.816;3.104;2023-01-08T07:53:57;97134.59;;;7.26;100.00
61039;BME280;46919;45.816;3.104;2023-01-08T07:56:22;97133.78;;;7.25;100.00
61039;BME280;46919;45.816;3.104;2023-01-08T07:58:49;97130.22;;;7.32;100.00
61039;BME280;46919;45.816;3.104;2023-01-08T08:01:14;97124.19;;;7.36;100.00
61039;BME280;46919;45.816;3.104;2023-01-08T08:03:40;97125.97;;;7.42;100.00
61039;BME280;46919;45.816;3.104;2023-01-08T08:06:05;97128.44;;;7.44;100.00
61039;BME280;46919;45.816;3.104;2023-01-08T08:08:31;97132.16;;;7.43;100.00
61039;BME280;46919;45.816;3.104;2023-01-08T08:10:57;97132.53;;;7.47;100.00
61039;BME280;46919;45.816;3.104;2023-01-08T08:13:22;97136.00;;;7.54;100.00
61039;BME280;46919;45.816;3.104;2023-01-08T08:15:48;97133.66;;;7.57;100.00
61039;BME280;46919;45.816;3.104;2023-01-08T08:18:13;97133.66;;;7.57;100.00
61039;BME280;46919;45.816;3.104;2023-01-08T08:20:39;97123.28;;;7.61;99.24
61039;BME280;46919;45.816;3.104;2023-01-08T08:23:10;97128.28;;;7.57;100.00
61039;BME280;46919;45.816;3.104;2023-01-08T08:25:38;97116.28;;;7.60;100.00
61039;BME280;46919;45.816;3.104;2023-01-08T08:28:04;97112.97;;;7.58;100.00
61039;BME280;46919;45.816;3.104;2023-01-08T08:30:32;97109.81;;;7.61;100.00
61039;BME280;46919;45.816;3.104;2023-01-08T08:32:59;97102.16;;;7.65;99.08
61039;BME280;46919;45.816;3.104;2023-01-08T08:35:25;97106.38;;;7.72;98.48
61039;BME280;46919;45.816;3.104;2023-01-08T08:37:50;97094.34;;;7.75;98.70
61039;BME280;46919;45.816;3.104;2023-01-08T08:40:16;97082.56;;;7.76;99.58
61039;BME280;46919;45.816;3.104;2023-01-08T08:42:41;97068.22;;;7.82;99.21
61039;BME280;46919;45.816;3.104;2023-01-08T08:45:07;97054.31;;;7.85;99.14
61039;BME280;46919;45.816;3.104;2023-01-08T08:47:33;97047.63;;;7.88;99.71
61039;BME280;46919;45.816;3.104;2023-01-08T08:49:58;97041.34;;;7.94;98.71
61039;BME280;46919;45.816;3.104;2023-01-08T08:52:23;97023.81;;;8.03;98.03
61039;BME280;46919;45.816;3.104;2023-01-08T08:54:49;97021.72;;;8.05;98.28
61039;BME280;46919;45.816;3.104;2023-01-08T08:57:14;97029.91;;;8.10;97.99
61039;BME280;46919;45.816;3.104;2023-01-08T08:59:40;97030.19;;;8.21;97.87
61039;BME280;46919;45.816;3.104;2023-01-08T09:02:06;97023.53;;;8.35;97.08
61039;BME280;46919;45.816;3.104;2023-01-08T09:04:32;97024.06;;;8.56;95.47
61039;BME280;46919;45.816;3.104;2023-01-08T09:06:58;97046.44;;;8.68;94.46
61039;BME280;46919;45.816;3.104;2023-01-08T09:09:24;97043.41;;;8.76;94.45
61039;BME280;46919;45.816;3.104;2023-01-08T09:11:50;97038.81;;;8.77;93.39
61039;BME280;46919;45.816;3.104;2023-01-08T09:14:15;97062.25;;;8.76;94.04
61039;BME280;46919;45.816;3.104;2023-01-08T09:16:40;97070.56;;;8.75;93.03
61039;BME280;46919;45.816;3.104;2023-01-08T09:19:07;97071.03;;;8.72;92.47
61039;BME280;46919;45.816;3.104;2023-01-08T09:21:33;97070.69;;;8.68;92.41
61039;BME280;46919;45.816;3.104;2023-01-08T09:23:58;97073.84;;;8.65;92.37
61039;BME280;46919;45.816;3.104;2023-01-08T09:26:23;97061.06;;;8.60;91.96
61039;BME280;46919;45.816;3.104;2023-01-08T09:28:49;97056.63;;;8.54;92.62
61039;BME280;46919;45.816;3.104;2023-01-08T09:31:14;97055.81;;;8.54;92.43
61039;BME280;46919;45.816;3.104;2023-01-08T09:33:40;97041.38;;;8.48;92.68
61039;BME280;46919;45.816;3.104;2023-01-08T09:36:11;97028.16;;;8.46;92.81
61039;BME280;46919;45.816;3.104;2023-01-08T09:38:37;97040.56;;;8.47;93.17
61039;BME280;46919;45.816;3.104;2023-01-08T09:41:06;97039.25;;;8.50;93.16
61039;BME280;46919;45.816;3.104;2023-01-08T09:43:35;97028.88;;;8.54;92.88
61039;BME280;46919;45.816;3.104;2023-01-08T09:46:03;97024.19;;;8.61;92.04
61039;BME280;46919;45.816;3.104;2023-01-08T09:48:34;97005.94;;;8.63;91.68
61039;BME280;46919;45.816;3.104;2023-01-08T09:51:01;96993.03;;;8.65;91.75
61039;BME280;46919;45.816;3.104;2023-01-08T09:53:27;96994.44;;;8.79;90.94
61039;BME280;46919;45.816;3.104;2023-01-08T09:55:55;96990.69;;;8.92;90.52
61039;BME280;46919;45.816;3.104;2023-01-08T09:58:37;96987.13;;;9.03;89.50
61039;BME280;46919;45.816;3.104;2023-01-08T10:01:03;96991.56;;;9.21;88.48
61039;BME280;46919;45.816;3.104;2023-01-08T10:03:38;96991.16;;;9.41;87.24
61039;BME280;46919;45.816;3.104;2023-01-08T10:06:09;96995.91;;;9.51;86.70
61039;BME280;46919;45.816;3.104;2023-01-08T10:08:35;96994.47;;;9.60;86.59
61039;BME280;46919;45.816;3.104;2023-01-08T10:11:01;97000.41;;;9.74;86.29
61039;BME280;46919;45.816;3.104;2023-01-08T10:13:26;97005.41;;;9.83;85.99
61039;BME280;46919;45.816;3.104;2023-01-08T10:15:51;97006.34;;;9.88;85.75
61039;BME280;46919;45.816;3.104;2023-01-08T10:18:18;96994.06;;;9.97;85.32
61039;BME280;46919;45.816;3.104;2023-01-08T10:20:47;96988.78;;;10.03;85.35
61039;BME280;46919;45.816;3.104;2023-01-08T10:23:15;96989.34;;;10.05;84.66
61039;BME280;46919;45.816;3.104;2023-01-08T10:25:57;96988.94;;;10.13;83.88
61039;BME280;46919;45.816;3.104;2023-01-08T10:28:29;96987.91;;;10.14;83.08
61039;BME280;46919;45.816;3.104;2023-01-08T10:31:07;96977.41;;;10.18;82.43
61039;BME280;46919;45.816;3.104;2023-01-08T10:33:39;96989.88;;;10.19;82.74
61039;BME280;46919;45.816;3.104;2023-01-08T10:36:08;96986.56;;;10.16;82.95
61039;BME280;46919;45.816;3.104;2023-01-08T10:38:38;96985.59;;;10.23;82.87
61039;BME280;46919;45.816;3.104;2023-01-08T10:41:09;96976.97;;;10.38;81.42
61039;BME280;46919;45.816;3.104;2023-01-08T10:43:42;96974.03;;;10.39;81.39
61039;BME280;46919;45.816;3.104;2023-01-08T10:46:34;96972.69;;;10.42;81.26
61039;BME280;46919;45.816;3.104;2023-01-08T10:49:03;96977.78;;;10.38;80.38
61039;BME280;46919;45.816;3.104;2023-01-08T10:51:31;96973.69;;;10.36;80.90
61039;BME280;46919;45.816;3.104;2023-01-08T10:54:12;96961.91;;;10.42;80.69
61039;BME280;46919;45.816;3.104;2023-01-08T10:56:41;96959.28;;;10.47;80.37
61039;BME280;46919;45.816;3.104;2023-01-08T10:59:21;96947.22;;;10.55;80.19
61039;BME280;46919;45.816;3.104;2023-01-08T11:01:48;96941.66;;;10.61;80.65
61039;BME280;46919;45.816;3.104;2023-01-08T11:04:20;96954.50;;;10.71;79.77
61039;BME280;46919;45.816;3.104;2023-01-08T11:06:47;96949.72;;;10.78;79.75
61039;BME280;46919;45.816;3.104;2023-01-08T11:09:22;96939.56;;;10.85;79.95
61039;BME280;46919;45.816;3.104;2023-01-08T11:11:49;96936.66;;;10.92;79.60
61039;BME280;46919;45.816;3.104;2023-01-08T11:14:33;96924.84;;;10.98;79.72
61039;BME280;46919;45.816;3.104;2023-01-08T11:17:00;96932.16;;;10.98;79.57
61039;BME280;46919;45.816;3.104;2023-01-08T11:21:58;96922.59;;;10.90;79.79
61039;BME280;46919;45.816;3.104;2023-01-08T11:24:44;96910.63;;;10.86;79.72
61039;BME280;46919;45.816;3.104;2023-01-08T11:27:17;96915.00;;;10.87;80.64
61039;BME280;46919;45.816;3.104;2023-01-08T11:30:10;96909.78;;;10.80;80.40
61039;BME280;46919;45.816;3.104;2023-01-08T11:32:54;96899.13;;;10.74;81.10
61039;BME280;46919;45.816;3.104;2023-01-08T11:35:33;96890.94;;;10.68;81.91
61039;BME280;46919;45.816;3.104;2023-01-08T11:38:01;96881.13;;;10.62;82.37
61039;BME280;46919;45.816;3.104;2023-01-08T12:05:15;96806.06;;;10.64;80.52
61039;BME280;46919;45.816;3.104;2023-01-08T12:32:19;96769.19;;;10.53;80.76
61039;BME280;46919;45.816;3.104;2023-01-08T12:40:22;96750.81;;;10.77;79.88
61039;BME280;46919;45.816;3.104;2023-01-08T12:42:49;96747.09;;;10.83;79.57
61039;BME280;46919;45.816;3.104;2023-01-08T12:45:19;96737.41;;;10.87;78.82
61039;BME280;46919;45.816;3.104;2023-01-08T12:47:51;96727.09;;;10.84;79.19
61039;BME280;46919;45.816;3.104;2023-01-08T12:50:43;96731.47;;;10.91;79.31
61039;BME280;46919;45.816;3.104;2023-01-08T12:59:01;96693.13;;;10.94;79.66
61039;BME280;46919;45.816;3.104;2023-01-08T13:01:37;96698.78;;;10.92;79.56
61039;BME280;46919;45.816;3.104;2023-01-08T13:04:07;96691.75;;;10.91;79.67
61039;BME280;46919;45.816;3.104;2023-01-08T13:06:33;96686.69;;;11.00;79.14
61039;BME280;46919;45.816;3.104;2023-01-08T13:08:59;96672.69;;;11.08;78.62
61039;BME280;46919;45.816;3.104;2023-01-08T13:11:28;96670.03;;;11.13;78.92
61039;BME280;46919;45.816;3.104;2023-01-08T13:16:24;96670.34;;;11.17;79.35
61039;BME280;46919;45.816;3.104;2023-01-08T13:21:27;96650.78;;;11.04;79.38
61039;BME280;46919;45.816;3.104;2023-01-08T13:23:59;96654.03;;;11.06;79.45
61039;BME280;46919;45.816;3.104;2023-01-08T13:26:30;96639.97;;;11.04;79.41
61039;BME280;46919;45.816;3.104;2023-01-08T13:29:21;96632.41;;;11.06;79.72
61039;BME280;46919;45.816;3.104;2023-01-08T13:31:48;96628.38;;;11.09;80.16
61039;BME280;46919;45.816;3.104;2023-01-08T13:34:42;96635.09;;;11.06;80.19
61039;BME280;46919;45.816;3.104;2023-01-08T13:37:08;96630.53;;;11.07;79.83
61039;BME280;46919;45.816;3.104;2023-01-08T13:39:37;96622.09;;;11.03;79.61
61039;BME280;46919;45.816;3.104;2023-01-08T13:42:25;96618.31;;;10.99;79.93
61039;BME280;46919;45.816;3.104;2023-01-08T13:45:00;96623.63;;;10.89;80.58
61039;BME280;46919;45.816;3.104;2023-01-08T13:47:31;96623.28;;;10.80;80.87
61039;BME280;46919;45.816;3.104;2023-01-08T13:49:58;96616.47;;;10.73;81.52
61039;BME280;46919;45.816;3.104;2023-01-08T13:52:37;96614.22;;;10.64;81.59
61039;BME280;46919;45.816;3.104;2023-01-08T13:55:15;96603.94;;;10.61;81.64
61039;BME280;46919;45.816;3.104;2023-01-08T13:57:48;96589.84;;;10.59;82.22
61039;BME280;46919;45.816;3.104;2023-01-08T14:00:22;96571.00;;;10.64;82.58
61039;BME280;46919;45.816;3.104;2023-01-08T14:02:48;96573.75;;;10.69;82.88
61039;BME280;46919;45.816;3.104;2023-01-08T14:07:44;96568.34;;;10.69;82.24
61039;BME280;46919;45.816;3.104;2023-01-08T14:10:14;96563.75;;;10.70;82.73
61039;BME280;46919;45.816;3.104;2023-01-08T14:12:40;96551.88;;;10.71;83.14
61039;BME280;46919;45.816;3.104;2023-01-08T14:15:25;96554.56;;;10.71;83.04
61039;BME280;46919;45.816;3.104;2023-01-08T14:17:52;96545.34;;;10.67;83.51
61039;BME280;46919;45.816;3.104;2023-01-08T14:20:32;96541.84;;;10.66;83.03
61039;BME280;46919;45.816;3.104;2023-01-08T14:23:00;96549.94;;;10.66;82.83
61039;BME280;46919;45.816;3.104;2023-01-08T14:25:26;96553.16;;;10.63;83.14
61039;BME280;46919;45.816;3.104;2023-01-08T14:28:03;96546.63;;;10.59;83.36
61039;BME280;46919;45.816;3.104;2023-01-08T14:30:29;96554.72;;;10.59;83.06
61039;BME280;46919;45.816;3.104;2023-01-08T14:32:56;96547.19;;;10.61;82.70
61039;BME280;46919;45.816;3.104;2023-01-08T14:35:27;96534.25;;;10.63;82.85